Time;durP1;ratioP1;P1;durP2;ratioP2;P2;SDS_P1;SDS_P2;PMS_P1;PMS_P2;Temp;Humidity;BMP_temperature;BMP_pressure;BME280_temperature;BME280_humidity;BME280_pressure;Samples;Min_cycle;Max_cycle;Signal;HPM_P1;HPM_P2
2022/11/06 00:00:29;;;;;;;4.27;3.63;;;;;;;-0.53;89.63;101907.91;4863005;29;20264;-77
2022/11/06 00:03:02;;;;;;;5.20;4.23;;;;;;;-0.39;89.67;101926.47;4879570;29;20298;-73
2022/11/06 00:08:12;;;;;;;5.63;3.67;;;;;;;-0.46;89.92;101911.94;4881067;29;20754;-73
2022/11/06 00:10:38;;;;;;;3.57;3.23;;;;;;;-0.37;89.74;101929.88;4880466;29;20269;-76
2022/11/06 00:13:03;;;;;;;4.60;4.10;;;;;;;-0.41;90.11;101922.22;4881206;29;20041;-76
2022/11/06 00:15:29;;;;;;;4.93;4.03;;;;;;;-0.39;90.20;101916.00;4881578;29;20513;-75
2022/11/06 00:17:55;;;;;;;4.03;3.50;;;;;;;-0.36;89.90;101912.41;4882148;29;20084;-76
2022/11/06 00:20:20;;;;;;;3.53;3.23;;;;;;;-0.31;90.31;101902.59;4882112;29;20029;-75
2022/11/06 00:22:46;;;;;;;3.73;3.40;;;;;;;-0.26;89.46;101899.78;4866501;29;20029;-75
2022/11/06 00:25:12;;;;;;;3.80;3.40;;;;;;;-0.36;89.44;101883.63;4884315;29;20032;-74
2022/11/06 00:27:39;;;;;;;4.80;3.43;;;;;;;-0.37;90.05;101877.53;4865018;29;20044;-75
2022/11/06 00:30:07;;;;;;;5.73;3.73;;;;;;;-0.41;90.09;101856.78;4880422;29;20032;-73
2022/11/06 00:32:32;;;;;;;3.78;3.38;;;;;;;-0.44;89.69;101849.06;4880037;29;20748;-75
2022/11/06 00:34:58;;;;;;;4.23;3.70;;;;;;;-0.38;90.09;101860.13;4879912;29;20124;-74
2022/11/06 00:37:23;;;;;;;3.27;2.83;;;;;;;-0.35;89.76;101852.13;4880081;29;20027;-74
2022/11/06 00:39:49;;;;;;;3.93;3.47;;;;;;;-0.45;90.20;101847.38;4863139;29;20029;-74
2022/11/06 00:42:14;;;;;;;4.13;3.73;;;;;;;-0.43;89.91;101849.00;4880101;29;20032;-74
2022/11/06 00:44:40;;;;;;;3.67;3.10;;;;;;;-0.40;90.80;101846.25;4879942;29;20125;-75
2022/11/06 00:47:05;;;;;;;4.37;3.97;;;;;;;-0.38;90.74;101852.28;4879791;29;20492;-73
2022/11/06 00:49:31;;;;;;;4.17;3.17;;;;;;;-0.36;90.89;101839.97;4879294;29;20043;-74
2022/11/06 00:51:56;;;;;;;6.63;4.00;;;;;;;-0.35;90.68;101835.59;4863084;29;20037;-74
2022/11/06 00:54:23;;;;;;;4.20;3.67;;;;;;;-0.27;90.19;101846.59;4879709;29;20040;-74
2022/11/06 00:56:49;;;;;;;4.57;3.47;;;;;;;-0.26;90.39;101844.81;4862564;29;20041;-73
2022/11/06 00:59:20;;;;;;;6.13;3.80;;;;;;;-0.31;89.91;101845.00;4879451;29;20384;-74
2022/11/06 01:01:46;;;;;;;5.07;3.83;;;;;;;-0.35;90.56;101836.44;4879512;29;20870;-74
2022/11/06 01:04:18;;;;;;;5.03;3.23;;;;;;;-0.57;90.22;101800.81;4879417;29;20029;-76
2022/11/06 01:06:53;;;;;;;3.73;3.13;;;;;;;-0.30;91.05;101854.53;4878791;29;20120;-75
2022/11/06 01:09:21;;;;;;;4.33;3.60;;;;;;;-0.29;90.05;101852.78;4879712;29;20289;-75
2022/11/06 01:11:50;;;;;;;5.15;3.53;;;;;;;-0.29;90.51;101852.78;4878925;29;20277;-76
2022/11/06 01:14:17;;;;;;;3.80;3.38;;;;;;;-0.29;90.37;101847.53;4879559;29;20053;-73
2022/11/06 01:16:44;;;;;;;3.80;3.20;;;;;;;-0.32;90.04;101841.53;4862436;29;20124;-74
2022/11/06 01:19:12;;;;;;;5.03;3.37;;;;;;;-0.28;90.34;101849.28;4879625;29;20269;-75
2022/11/06 01:21:39;;;;;;;4.70;3.42;;;;;;;-0.32;90.41;101836.28;4879619;29;20356;-74
2022/11/06 01:24:10;;;;;;;4.73;3.30;;;;;;;-0.33;90.74;101825.91;4879239;29;20386;-75
2022/11/06 01:26:37;;;;;;;4.23;3.60;;;;;;;-0.34;90.78;101830.28;4879195;29;20266;-76
2022/11/06 01:29:04;;;;;;;4.17;3.40;;;;;;;-0.33;90.70;101818.88;4879741;29;20265;-74
2022/11/06 01:31:31;;;;;;;5.00;4.27;;;;;;;-0.29;91.05;101816.13;4882555;29;20364;-74
2022/11/06 01:33:58;;;;;;;4.50;4.10;;;;;;;-0.34;91.12;101791.00;4882930;29;20938;-75
2022/11/06 01:36:24;;;;;;;5.03;3.93;;;;;;;-0.28;90.57;101807.41;4883644;29;20360;-74
2022/11/06 01:38:52;;;;;;;4.90;3.70;;;;;;;-0.29;90.56;101797.81;4883339;29;20356;-74
2022/11/06 01:41:30;;;;;;;6.30;4.57;;;;;;;-0.28;90.75;101789.91;4866239;29;20261;-74
2022/11/06 01:44:25;;;;;;;4.27;3.70;;;;;;;-0.24;90.96;101798.47;4882891;29;20269;-74
2022/11/06 01:46:50;;;;;;;4.27;3.63;;;;;;;-0.28;91.04;101786.44;4882624;29;20313;-74
2022/11/06 01:49:16;;;;;;;5.63;4.27;;;;;;;-0.24;90.57;101788.00;4882661;29;20274;-74
2022/11/06 01:51:55;;;;;;;5.97;4.30;;;;;;;-0.23;90.83;101784.47;4866073;29;20033;-74
2022/11/06 01:54:26;;;;;;;4.95;4.15;;;;;;;-0.23;90.34;101789.72;4882725;29;20285;-74
2022/11/06 01:56:55;;;;;;;5.23;4.50;;;;;;;-0.28;90.92;101774.22;4882336;29;20045;-75
2022/11/06 01:59:27;;;;;;;4.80;3.87;;;;;;;-0.25;90.72;101775.84;4882987;29;20409;-74
2022/11/06 02:01:53;;;;;;;6.03;4.43;;;;;;;-0.29;90.81;101779.47;4866269;29;20312;-75
2022/11/06 02:04:28;;;;;;;6.10;4.50;;;;;;;-0.32;91.20;101780.47;4882705;29;20299;-75
2022/11/06 02:06:56;;;;;;;6.27;4.60;;;;;;;-0.33;91.07;101777.00;4882749;29;20610;-75
2022/11/06 02:09:24;;;;;;;5.57;4.80;;;;;;;-0.36;91.20;101764.06;4883138;29;20400;-74
2022/11/06 02:12:09;;;;;;;6.22;5.13;;;;;;;-0.35;91.18;101750.06;4882334;29;20258;-73
2022/11/06 02:14:52;;;;;;;7.33;5.57;;;;;;;-0.32;91.55;101754.31;4882586;29;20033;-74
2022/11/06 02:17:27;;;;;;;5.50;4.93;;;;;;;-0.25;91.27;101749.66;4882294;29;20296;-74
2022/11/06 02:20:16;;;;;;;5.47;4.80;;;;;;;-0.23;91.32;101743.44;4882092;29;20377;-74
2022/11/06 02:22:50;;;;;;;5.70;4.67;;;;;;;-0.17;91.31;101753.63;4882747;29;20258;-74
2022/11/06 02:25:47;;;;;;;5.83;4.43;;;;;;;-0.21;91.50;101757.31;4882239;29;20360;-73
2022/11/06 02:28:27;;;;;;;6.17;4.70;;;;;;;-0.25;91.48;101749.66;4882328;29;20349;-73
2022/11/06 02:30:57;;;;;;;5.93;4.83;;;;;;;-0.23;91.28;101755.69;4867328;29;20258;-73
2022/11/06 02:33:36;;;;;;;5.27;4.70;;;;;;;-0.17;91.60;101747.53;4884081;29;20405;-72
2022/11/06 02:36:15;;;;;;;6.07;4.97;;;;;;;-0.22;91.66;101746.91;4881970;29;20288;-74
2022/11/06 02:38:45;;;;;;;7.80;5.33;;;;;;;-0.16;91.59;101736.16;4865579;29;20269;-74
2022/11/06 02:41:23;;;;;;;6.40;4.63;;;;;;;-0.17;91.59;101737.06;4882020;29;20746;-74
2022/11/06 02:43:54;;;;;;;7.70;5.07;;;;;;;-0.20;91.30;101745.06;4881971;29;20277;-74
2022/11/06 02:46:26;;;;;;;7.00;5.00;;;;;;;-0.20;91.51;101731.97;4882774;29;20048;-73
2022/11/06 02:49:03;;;;;;;8.33;5.63;;;;;;;-0.16;91.63;101725.69;4882794;29;20277;-73
2022/11/06 02:51:30;;;;;;;8.23;5.37;;;;;;;-0.09;91.32;101741.03;4882358;29;20320;-72
2022/11/06 02:54:01;;;;;;;7.10;5.70;;;;;;;-0.07;90.94;101727.84;4881972;29;20345;-75
2022/11/06 02:56:32;;;;;;;8.07;6.67;;;;;;;-0.13;91.31;101728.16;4881882;29;20297;-73
2022/11/06 02:59:02;;;;;;;8.47;6.50;;;;;;;-0.11;91.46;101739.41;4881790;29;20269;-74
2022/11/06 03:01:31;;;;;;;10.37;7.00;;;;;;;-0.13;91.81;101741.25;4882357;29;20713;-76
2022/11/06 03:04:25;;;;;;;7.97;6.40;;;;;;;-0.27;91.77;101720.94;4880650;29;20656;-76
2022/11/06 03:07:18;;;;;;;9.43;6.80;;;;;;;-0.14;92.00;101726.44;4881387;29;20033;-76
2022/11/06 03:09:44;;;;;;;10.57;6.77;;;;;;;-0.19;92.22;101712.72;4863837;29;20361;-76
2022/11/06 03:16:04;;;;;;;10.50;6.93;;;;;;;-0.16;92.16;101723.06;4900272;29;20300;-75
2022/11/06 03:19:11;;;;;;;12.77;6.77;;;;;;;-0.20;92.88;101713.66;4888071;29;20269;-76
2022/11/06 03:22:13;;;;;;;10.53;7.27;;;;;;;-0.13;92.32;101717.69;4902942;29;20270;-75
2022/11/06 03:25:03;;;;;;;11.17;7.90;;;;;;;-0.14;92.87;101714.22;4882324;29;20285;-76
2022/11/06 03:31:16;;;;;;;14.93;8.33;;;;;;;-0.36;93.04;101675.06;4879711;29;20777;-76
2022/11/06 03:37:26;;;;;;;12.90;8.33;;;;;;;-0.18;93.34;101714.44;4835020;29;20290;-76
2022/11/06 03:39:56;;;;;;;12.23;8.83;;;;;;;-0.20;93.39;101709.25;4880409;29;20539;-75
2022/11/06 03:42:26;;;;;;;12.67;9.13;;;;;;;-0.23;93.58;101700.69;4897180;29;20249;-73
2022/11/06 03:44:57;;;;;;;11.63;8.63;;;;;;;-0.23;94.10;101703.31;4899838;29;20325;-75
2022/11/06 03:47:37;;;;;;;13.50;9.00;;;;;;;-0.21;93.98;101693.63;4886743;29;20265;-75
2022/11/06 03:50:11;;;;;;;15.07;7.90;;;;;;;-0.14;94.04;101695.03;4898482;29;20273;-76
2022/11/06 03:52:42;;;;;;;10.50;7.87;;;;;;;-0.06;93.64;101693.75;4881853;29;20288;-77
2022/11/06 03:55:13;;;;;;;12.20;8.30;;;;;;;-0.06;93.63;101687.66;4882273;29;20393;-76
2022/11/06 03:57:41;;;;;;;13.63;8.33;;;;;;;-0.10;93.94;101678.25;4882356;29;20280;-78
2022/11/06 04:00:08;;;;;;;13.93;8.20;;;;;;;-0.14;94.12;101674.94;4865108;29;20404;-76
2022/11/06 04:02:40;;;;;;;11.52;8.45;;;;;;;-0.19;94.54;101686.53;4881046;29;20286;-75
2022/11/06 04:05:13;;;;;;;13.90;7.67;;;;;;;-0.20;94.66;101683.09;4881685;29;20061;-75
2022/11/06 04:13:56;;;;;;;12.93;8.47;;;;;;;-0.21;95.22;101680.53;4881204;29;20273;-78
2022/11/06 04:16:34;;;;;;;12.30;8.27;;;;;;;-0.20;95.50;101679.63;4882857;29;20297;-77
2022/11/06 04:27:18;;;;;;;15.20;8.60;;;;;;;-0.24;96.46;101685.91;4805651;29;20290;-75
2022/11/06 04:30:09;;;;;;;16.85;9.13;;;;;;;-0.28;96.79;101689.59;4827143;29;20274;-76
2022/11/06 04:32:47;;;;;;;15.30;8.47;;;;;;;-0.26;96.75;101679.91;4873582;29;20145;-75
2022/11/06 04:35:18;;;;;;;15.60;8.20;;;;;;;-0.34;96.46;101665.38;4880152;29;20587;-75
2022/11/06 04:38:12;;;;;;;15.00;8.90;;;;;;;-0.20;96.73;101687.47;4880448;29;20297;-75
2022/11/06 04:40:57;;;;;;;15.67;9.40;;;;;;;-0.31;97.03;101675.69;4880278;29;20766;-75
2022/11/06 04:43:39;;;;;;;22.23;10.40;;;;;;;-0.29;97.45;101680.00;4879564;29;20752;-74
2022/11/06 04:46:08;;;;;;;16.57;8.90;;;;;;;-0.29;97.37;101674.78;4879405;29;20364;-74
2022/11/06 04:48:36;;;;;;;15.90;10.37;;;;;;;-0.42;97.50;101658.81;4879645;29;20358;-75
2022/11/06 04:51:06;;;;;;;15.93;9.47;;;;;;;-0.33;98.13;101682.78;4879610;29;20258;-74
2022/11/06 04:53:34;;;;;;;17.73;9.47;;;;;;;-0.34;98.34;101660.16;4879512;29;20292;-74
2022/11/06 04:56:09;;;;;;;16.07;9.57;;;;;;;-0.27;98.34;101657.25;4880124;29;20301;-74
2022/11/06 04:58:35;;;;;;;17.47;9.20;;;;;;;-0.35;97.95;101632.28;4879524;29;20282;-74
2022/11/06 05:01:00;;;;;;;18.03;9.93;;;;;;;-0.20;98.88;101654.28;4887118;29;20341;-74
2022/11/06 05:03:28;;;;;;;17.83;10.10;;;;;;;-0.20;99.25;101656.06;4900578;29;20029;-72
2022/11/06 05:05:54;;;;;;;17.45;9.57;;;;;;;-0.28;99.58;101650.34;4893648;29;20393;-74
2022/11/06 05:08:20;;;;;;;16.83;9.83;;;;;;;-0.32;99.40;101641.75;4879721;29;20632;-74
2022/11/06 05:10:46;;;;;;;16.50;10.17;;;;;;;-0.28;100.00;101652.94;4879307;29;20025;-73
2022/11/06 05:13:13;;;;;;;17.57;9.83;;;;;;;-0.24;100.00;101649.28;4879384;29;20269;-75
2022/11/06 05:15:38;;;;;;;19.07;11.37;;;;;;;-0.37;100.00;101641.13;4879281;29;20826;-73
2022/11/06 05:18:05;;;;;;;21.23;11.00;;;;;;;-0.35;100.00;101637.50;4879321;29;20299;-73
2022/11/06 05:20:30;;;;;;;20.70;11.27;;;;;;;-0.34;100.00;101641.81;4879098;29;20452;-74
2022/11/06 05:23:02;;;;;;;22.63;9.50;;;;;;;-0.48;100.00;101618.06;4879312;29;20368;-75
2022/11/06 05:25:33;;;;;;;18.17;10.43;;;;;;;-0.33;100.00;101627.81;4879548;29;20093;-74
2022/11/06 05:28:00;;;;;;;16.60;10.17;;;;;;;-0.26;100.00;101640.63;4879214;29;20322;-75
2022/11/06 05:30:26;;;;;;;16.83;10.37;;;;;;;-0.24;100.00;101636.19;4879261;29;20269;-73
2022/11/06 05:32:51;;;;;;;17.03;9.93;;;;;;;-0.22;100.00;101635.19;4878974;29;20356;-73
2022/11/06 05:35:19;;;;;;;22.80;10.33;;;;;;;-0.22;100.00;101643.03;4878331;29;20087;-75
2022/11/06 05:37:45;;;;;;;29.77;14.97;;;;;;;-0.24;100.00;101639.66;4879012;29;20044;-72
2022/11/06 05:40:45;;;;;;;42.23;21.50;;;;;;;-0.18;99.77;101646.34;4879081;29;20273;-75
2022/11/06 05:43:11;;;;;;;36.83;17.63;;;;;;;-0.44;99.55;101593.47;4878827;29;20305;-75
2022/11/06 05:45:37;;;;;;;37.60;18.00;;;;;;;-0.37;99.50;101610.56;4878752;29;20793;-74
2022/11/06 05:48:02;;;;;;;36.07;17.40;;;;;;;-0.16;99.87;101634.03;4879026;29;20373;-75
2022/11/06 05:50:28;;;;;;;30.20;15.13;;;;;;;-0.16;99.32;101639.28;4879620;29;20032;-75
2022/11/06 05:52:55;;;;;;;32.20;15.67;;;;;;;-0.11;99.65;101638.13;4879068;29;20478;-75
2022/11/06 05:55:20;;;;;;;37.03;16.37;;;;;;;-0.14;99.03;101633.03;4878839;29;20056;-75
2022/11/06 05:57:46;;;;;;;25.57;13.87;;;;;;;-0.06;98.93;101640.53;4881936;29;20253;-75
2022/11/06 06:00:12;;;;;;;25.47;14.17;;;;;;;-0.12;99.22;101638.22;4866876;29;20129;-75
2022/11/06 06:02:39;;;;;;;30.83;18.07;;;;;;;-0.10;99.39;101646.84;4884311;29;20064;-75
2022/11/06 06:05:05;;;;;;;27.23;13.40;;;;;;;-0.08;99.32;101640.59;4884693;29;20688;-77
2022/11/06 06:07:31;;;;;;;22.50;12.87;;;;;;;-0.06;99.19;101643.16;4883616;29;20344;-74
2022/11/06 06:09:56;;;;;;;27.03;14.40;;;;;;;-0.08;99.06;101626.66;4862983;29;20266;-73
2022/11/06 06:12:25;;;;;;;24.77;12.63;;;;;;;-0.06;98.92;101630.06;4878586;29;20458;-75
2022/11/06 06:14:53;;;;;;;39.85;17.25;;;;;;;-0.07;98.69;101644.06;4877614;29;20029;-75
2022/11/06 06:17:19;;;;;;;30.75;14.70;;;;;;;-0.08;99.15;101637.13;4881776;29;20033;-79
2022/11/06 06:19:47;;;;;;;34.67;17.00;;;;;;;-0.05;99.46;101627.34;4881561;29;20036;-73
2022/11/06 06:22:30;;;;;;;28.47;15.10;;;;;;;-0.06;98.79;101612.56;4880814;29;20265;-78
2022/11/06 06:25:51;;;;;;;18.13;9.67;;;;;;;-0.06;98.89;101625.66;4833254;29;20278;-77
2022/11/06 06:28:16;;;;;;;24.57;12.20;;;;;;;-0.18;99.13;101610.56;4880271;29;20305;-76
2022/11/06 06:30:42;;;;;;;26.63;13.57;;;;;;;-0.06;99.36;101619.56;4883019;29;20602;-76
2022/11/06 06:33:15;;;;;;;24.17;12.67;;;;;;;-0.04;99.14;101608.09;4884068;29;20527;-77
2022/11/06 06:35:40;;;;;;;31.50;14.57;;;;;;;-0.20;99.26;101591.44;4852479;29;20035;-78
2022/11/06 06:38:09;;;;;;;35.40;17.00;;;;;;;-0.02;100.00;101621.13;4885012;29;20269;-77
2022/11/06 06:40:35;;;;;;;41.23;20.23;;;;;;;-0.10;100.00;101623.28;4853542;29;20025;-76
2022/11/06 06:43:01;;;;;;;30.17;14.47;;;;;;;-0.11;100.00;101622.41;4884361;29;20560;-77
2022/11/06 06:45:26;;;;;;;26.67;12.97;;;;;;;-0.21;100.00;101612.47;4884969;29;20029;-75
2022/11/06 06:48:05;;;;;;;25.70;12.17;;;;;;;-0.15;100.00;101614.78;4885184;29;20037;-80
2022/11/06 06:50:40;;;;;;;44.38;21.02;;;;;;;-0.16;100.00;101619.19;4888288;29;20033;-78
2022/11/06 06:53:07;;;;;;;34.17;16.57;;;;;;;-0.18;100.00;101601.84;4886762;29;20136;-73
2022/11/06 06:55:40;;;;;;;29.90;14.43;;;;;;;-0.07;100.00;101612.66;4865207;29;20326;-78
2022/11/06 06:58:06;;;;;;;23.30;10.93;;;;;;;-0.08;100.00;101600.47;4881331;29;20270;-74
2022/11/06 07:01:03;;;;;;;30.73;15.90;;;;;;;-0.08;100.00;101603.09;4881153;29;20285;-81
2022/11/06 07:03:28;;;;;;;29.77;14.30;;;;;;;-0.26;100.00;101569.97;4866507;29;20041;-79
2022/11/06 07:05:56;;;;;;;21.70;13.53;;;;;;;-0.13;100.00;101590.22;4882029;29;20289;-80
2022/11/06 07:08:21;;;;;;;21.43;12.37;;;;;;;-0.07;100.00;101603.03;4882173;29;20426;-77
2022/11/06 07:10:47;;;;;;;19.20;11.73;;;;;;;-0.08;100.00;101605.72;4881276;29;20269;-75
2022/11/06 07:13:12;;;;;;;17.50;10.13;;;;;;;-0.08;100.00;101611.78;4882069;29;20382;-77
2022/11/06 07:15:38;;;;;;;18.87;10.40;;;;;;;-0.06;100.00;101606.47;4864977;29;20039;-72
2022/11/06 07:18:05;;;;;;;17.87;10.20;;;;;;;-0.01;100.00;101601.88;4881046;29;20059;-72
2022/11/06 07:20:35;;;;;;;22.90;11.87;;;;;;;0.01;100.00;101594.81;4881006;29;20427;-71
2022/11/06 07:23:05;;;;;;;24.92;13.95;;;;;;;0.02;100.00;101603.53;4881162;29;20285;-70
2022/11/06 07:25:34;;;;;;;32.57;13.63;;;;;;;-0.03;100.00;101601.94;4880926;29;20052;-69
2022/11/06 07:28:05;;;;;;;18.43;10.93;;;;;;;-0.13;100.00;101584.16;4880176;29;20294;-70
2022/11/06 07:30:31;;;;;;;17.63;11.27;;;;;;;-0.04;100.00;101592.38;4883669;29;20266;-72
2022/11/06 07:32:59;;;;;;;20.50;11.47;;;;;;;0.03;100.00;101592.97;4882362;29;20341;-70
2022/11/06 07:35:24;;;;;;;18.23;11.15;;;;;;;-0.11;100.00;101570.06;4881552;29;20435;-76
2022/11/06 07:37:50;;;;;;;20.53;12.30;;;;;;;0.06;100.00;101586.72;4880657;29;20108;-73
2022/11/06 07:40:16;;;;;;;15.20;10.27;;;;;;;0.10;100.00;101589.13;4864523;29;20036;-74
2022/11/06 07:42:41;;;;;;;14.63;9.83;;;;;;;0.12;100.00;101591.66;4882877;29;20391;-72
2022/11/06 07:45:08;;;;;;;16.63;10.63;;;;;;;0.13;100.00;101583.72;4863926;29;20029;-70
2022/11/06 07:47:33;;;;;;;22.80;10.23;;;;;;;0.14;100.00;101585.41;4880970;29;20066;-70
2022/11/06 07:49:59;;;;;;;17.40;10.13;;;;;;;0.17;100.00;101587.88;4879939;29;20730;-71
2022/11/06 07:52:25;;;;;;;18.70;11.10;;;;;;;0.20;100.00;101579.88;4879899;29;20064;-71
2022/11/06 07:54:52;;;;;;;18.27;9.33;;;;;;;0.21;100.00;101575.47;4879927;29;20036;-77
2022/11/06 07:57:18;;;;;;;18.07;10.43;;;;;;;0.11;100.00;101564.63;4879796;29;20781;-73
2022/11/06 07:59:44;;;;;;;19.33;10.23;;;;;;;0.24;100.00;101573.56;4880800;29;20294;-73
2022/11/06 08:02:11;;;;;;;18.97;12.27;;;;;;;0.34;100.00;101562.63;4863815;29;20052;-74
2022/11/06 08:04:37;;;;;;;20.13;10.73;;;;;;;0.26;100.00;101558.59;4880040;29;20029;-76
2022/11/06 08:07:04;;;;;;;17.10;9.60;;;;;;;0.30;100.00;101570.66;4878596;29;20773;-76
2022/11/06 08:09:30;;;;;;;21.77;11.60;;;;;;;0.34;100.00;101567.88;4880196;29;20273;-76
2022/11/06 08:11:56;;;;;;;25.57;12.73;;;;;;;0.36;100.00;101555.53;4879506;29;20025;-73
2022/11/06 08:14:22;;;;;;;17.57;10.33;;;;;;;0.41;100.00;101561.38;4879338;29;20285;-72
2022/11/06 08:16:47;;;;;;;17.73;9.47;;;;;;;0.45;100.00;101560.28;4879645;29;20390;-72
2022/11/06 08:19:13;;;;;;;17.60;10.40;;;;;;;0.48;100.00;101549.66;4879479;29;20033;-70
2022/11/06 08:21:39;;;;;;;22.93;11.07;;;;;;;0.58;100.00;101561.38;4880285;29;20024;-73
2022/11/06 08:24:05;;;;;;;18.00;9.33;;;;;;;0.56;100.00;101560.59;4865159;29;20033;-73
2022/11/06 08:26:31;;;;;;;15.30;9.50;;;;;;;0.50;100.00;101555.66;4885105;29;20041;-73
2022/11/06 08:28:56;;;;;;;14.83;8.07;;;;;;;0.54;100.00;101558.03;4880365;29;20266;-72
2022/11/06 08:31:22;;;;;;;14.60;8.77;;;;;;;0.52;100.00;101557.28;4863671;29;20435;-75
2022/11/06 08:33:48;;;;;;;17.67;9.47;;;;;;;0.58;100.00;101564.00;4879892;29;20355;-77
2022/11/06 08:36:14;;;;;;;16.17;9.07;;;;;;;0.61;100.00;101550.72;4879366;29;20527;-80
2022/11/06 08:38:40;;;;;;;15.60;8.00;;;;;;;0.60;100.00;101555.13;4882283;29;20270;-76
2022/11/06 08:41:07;;;;;;;13.50;8.20;;;;;;;0.61;100.00;101559.44;4901875;29;20037;-77
2022/11/06 08:43:33;;;;;;;18.50;10.00;;;;;;;0.52;100.00;101543.31;4898121;29;20081;-71
2022/11/06 08:45:59;;;;;;;19.70;9.83;;;;;;;0.61;100.00;101542.88;4889210;29;20308;-73
2022/11/06 08:48:25;;;;;;;15.57;9.73;;;;;;;0.59;100.00;101545.56;4882857;29;20266;-71
2022/11/06 08:50:50;;;;;;;15.37;8.90;;;;;;;0.57;100.00;101542.16;4879139;29;20041;-72
2022/11/06 08:53:17;;;;;;;17.90;8.60;;;;;;;0.60;100.00;101535.94;4862333;29;20061;-74
2022/11/06 08:55:43;;;;;;;20.17;11.07;;;;;;;0.63;100.00;101538.41;4879101;29;20073;-75
2022/11/06 08:58:08;;;;;;;18.33;9.87;;;;;;;0.71;100.00;101546.69;4880306;29;20270;-72
2022/11/06 09:00:34;;;;;;;13.13;7.70;;;;;;;0.70;100.00;101552.88;4880308;29;20769;-74
2022/11/06 09:03:12;;;;;;;18.60;8.77;;;;;;;0.67;100.00;101539.06;4879603;29;20036;-72
2022/11/06 09:05:42;;;;;;;17.30;7.93;;;;;;;0.68;100.00;101541.63;4886042;29;20024;-69
2022/11/06 09:08:15;;;;;;;13.47;7.63;;;;;;;0.72;100.00;101542.31;4896558;29;20280;-73
2022/11/06 09:10:42;;;;;;;16.67;8.90;;;;;;;0.67;100.00;101545.16;4893866;29;20269;-74
2022/11/06 09:13:08;;;;;;;15.93;7.30;;;;;;;0.66;100.00;101546.09;4892934;29;20258;-73
2022/11/06 09:15:34;;;;;;;14.37;7.97;;;;;;;0.65;100.00;101539.16;4879105;29;20265;-75
2022/11/06 09:17:59;;;;;;;12.67;9.40;;;;;;;0.61;100.00;101535.84;4878891;29;20269;-77
2022/11/06 09:20:25;;;;;;;11.37;6.27;;;;;;;0.65;100.00;101543.56;4863106;29;20185;-76
2022/11/06 09:22:52;;;;;;;10.77;6.47;;;;;;;0.68;100.00;101531.13;4879580;29;20522;-76
2022/11/06 09:25:21;;;;;;;8.43;6.27;;;;;;;0.58;100.00;101511.59;4879067;29;20297;-76
2022/11/06 09:27:52;;;;;;;16.42;7.88;;;;;;;0.79;100.00;101528.78;4879339;29;20368;-76
2022/11/06 09:30:20;;;;;;;10.93;6.83;;;;;;;0.69;100.00;101519.72;4878988;29;20466;-75
2022/11/06 09:32:48;;;;;;;12.95;5.90;;;;;;;0.71;100.00;101536.22;4862240;29;20284;-75
2022/11/06 09:35:14;;;;;;;13.20;7.83;;;;;;;0.69;100.00;101532.81;4879593;29;20044;-75
2022/11/06 09:37:40;;;;;;;12.87;8.67;;;;;;;0.72;100.00;101535.28;4878733;29;20297;-71
2022/11/06 09:40:07;;;;;;;12.13;6.97;;;;;;;0.76;100.00;101533.34;4878471;29;20738;-72
2022/11/06 09:42:38;;;;;;;8.77;6.03;;;;;;;0.84;100.00;101539.00;4879507;29;20039;-72
2022/11/06 09:45:25;;;;;;;12.03;6.93;;;;;;;0.85;100.00;101541.56;4878984;29;20734;-72
2022/11/06 09:48:00;;;;;;;10.67;6.93;;;;;;;0.87;100.00;101538.88;4878953;29;20282;-70
2022/11/06 09:50:31;;;;;;;14.57;6.97;;;;;;;0.87;100.00;101529.25;4878654;29;20372;-71
2022/11/06 09:53:01;;;;;;;15.67;6.67;;;;;;;0.92;100.00;101531.63;4882231;29;20317;-70
2022/11/06 09:55:39;;;;;;;8.63;5.83;;;;;;;0.85;100.00;101520.56;4883056;29;20618;-74
2022/11/06 09:58:23;;;;;;;8.82;5.75;;;;;;;0.92;100.00;101535.09;4865770;29;20261;-72
2022/11/06 10:00:51;;;;;;;10.93;6.43;;;;;;;0.92;100.00;101531.63;4882582;29;20029;-71
2022/11/06 10:03:24;;;;;;;10.43;6.07;;;;;;;0.97;100.00;101533.97;4882331;29;20269;-72
2022/11/06 10:05:52;;;;;;;9.03;5.70;;;;;;;0.92;100.00;101532.47;4882510;29;20321;-75
2022/11/06 10:08:27;;;;;;;9.23;5.55;;;;;;;0.81;100.00;101526.91;4881925;29;20278;-72
2022/11/06 10:11:13;;;;;;;6.37;5.37;;;;;;;0.89;100.00;101547.50;4865417;29;20029;-70
2022/11/06 10:14:05;;;;;;;7.70;5.67;;;;;;;0.92;100.00;101553.44;4852227;29;20308;-72
2022/11/06 10:16:44;;;;;;;9.93;6.13;;;;;;;0.90;100.00;101543.97;4881562;29;20761;-73
2022/11/06 10:19:25;;;;;;;8.50;6.00;;;;;;;0.95;100.00;101541.94;4881767;29;20262;-71
2022/11/06 10:22:13;;;;;;;7.40;5.37;;;;;;;0.92;100.00;101521.97;4882039;29;20065;-72
2022/11/06 10:24:46;;;;;;;8.57;5.75;;;;;;;0.93;100.00;101534.16;4881852;29;20268;-74
2022/11/06 10:27:21;;;;;;;7.63;5.50;;;;;;;1.00;100.00;101529.41;4881768;29;20040;-74
2022/11/06 10:30:05;;;;;;;10.13;6.00;;;;;;;1.06;100.00;101521.22;4896273;29;20750;-72
2022/11/06 10:33:13;;;;;;;8.67;5.53;;;;;;;1.02;100.00;101508.34;4882030;29;20266;-73
2022/11/06 10:35:44;;;;;;;9.98;6.72;;;;;;;1.05;100.00;101519.53;4869995;29;20321;-73
2022/11/06 10:38:13;;;;;;;10.93;7.13;;;;;;;1.06;100.00;101520.38;4881850;29;20125;-71
2022/11/06 10:40:42;;;;;;;21.13;12.53;;;;;;;1.11;100.00;101515.72;4881374;29;20261;-73
2022/11/06 10:43:23;;;;;;;;;;;;;;;1.15;100.00;101506.72;4881787;29;20265;-71
2022/11/06 10:45:55;;;;;;;8.57;5.70;;;;;;;1.13;100.00;101503.34;4880839;29;19919;-75
2022/11/06 10:48:29;;;;;;;9.03;5.07;;;;;;;1.15;100.00;101507.59;4881832;29;20352;-74
2022/11/06 10:51:06;;;;;;;9.97;6.53;;;;;;;1.14;100.00;101503.25;4881437;29;20273;-73
2022/11/06 10:53:52;;;;;;;11.70;6.97;;;;;;;1.17;100.00;101497.03;4879565;29;20289;-72
2022/11/06 10:56:36;;;;;;;9.33;6.43;;;;;;;1.20;100.00;101496.88;4879938;29;20401;-71
2022/11/06 10:59:02;;;;;;;9.40;4.80;;;;;;;1.19;100.00;101498.63;4881540;29;20295;-73
2022/11/06 11:01:28;;;;;;;7.53;4.77;;;;;;;1.22;100.00;101502.88;4893661;29;20266;-72
2022/11/06 11:03:53;;;;;;;11.00;6.83;;;;;;;1.20;100.00;101499.50;4902443;29;20029;-71
2022/11/06 11:06:28;;;;;;;7.47;5.33;;;;;;;1.28;100.00;101496.44;4896495;29;20053;-80
2022/11/06 11:08:54;;;;;;;6.63;5.07;;;;;;;1.27;100.00;101495.59;4882310;29;20425;-74
2022/11/06 11:11:26;;;;;;;9.37;5.50;;;;;;;1.28;100.00;101499.91;4880546;29;20329;-75
2022/11/06 11:13:54;;;;;;;12.10;6.67;;;;;;;1.30;100.00;101505.91;4880405;29;20072;-72
2022/11/06 11:16:27;;;;;;;9.27;5.85;;;;;;;1.26;100.00;101499.13;4881013;29;20329;-75
2022/11/06 11:18:53;;;;;;;5.57;4.63;;;;;;;1.30;100.00;101500.66;4879859;29;20039;-75
2022/11/06 11:21:18;;;;;;;6.70;5.80;;;;;;;1.28;100.00;101499.06;4880282;29;20282;-75
2022/11/06 11:24:09;;;;;;;4.80;4.13;;;;;;;1.21;100.00;101486.28;4880144;29;20044;-74
2022/11/06 11:27:05;;;;;;;7.00;4.83;;;;;;;1.14;100.00;101463.06;4879847;29;20065;-81
2022/11/06 11:29:46;;;;;;;9.93;6.23;;;;;;;1.23;100.00;101487.03;4880631;29;20362;-76
2022/11/06 11:32:46;;;;;;;8.90;5.17;;;;;;;1.14;100.00;101463.91;4879838;29;20270;-74
2022/11/06 11:35:19;;;;;;;7.93;4.43;;;;;;;1.34;100.00;101501.31;4881441;29;20331;-76
2022/11/06 11:37:45;;;;;;;10.87;8.00;;;;;;;1.14;100.00;101484.91;4881206;29;20733;-77
2022/11/06 11:40:23;;;;;;;8.67;6.17;;;;;;;1.28;100.00;101492.03;4881669;29;20262;-76
2022/11/06 11:42:51;;;;;;;11.60;5.90;;;;;;;1.23;100.00;101478.31;4881559;29;20625;-81
2022/11/06 11:45:42;;;;;;;7.97;5.63;;;;;;;1.34;100.00;101496.94;4864748;29;20779;-79
2022/11/06 11:48:12;;;;;;;9.83;5.90;;;;;;;1.29;100.00;101480.59;4881044;29;20040;-77
2022/11/06 11:50:44;;;;;;;12.40;7.17;;;;;;;1.39;100.00;101494.88;4880774;29;20305;-76
2022/11/06 11:53:20;;;;;;;11.67;8.23;;;;;;;1.36;100.00;101484.56;4878638;29;20634;-76
2022/11/06 11:55:49;;;;;;;9.93;4.63;;;;;;;1.38;100.00;101482.69;4880177;29;20385;-76
2022/11/06 11:58:22;;;;;;;8.13;5.00;;;;;;;1.35;100.00;101479.41;4880986;29;20292;-76
2022/11/06 12:01:12;;;;;;;12.00;6.80;;;;;;;1.36;100.00;101478.47;4880018;29;20041;-80
2022/11/06 12:03:51;;;;;;;7.00;5.30;;;;;;;1.32;100.00;101485.66;4876294;29;20282;-81